Time;durP1;ratioP1;P1;durP2;ratioP2;P2;SDS_P1;SDS_P2;PMS_P1;PMS_P2;Temp;Humidity;BMP_temperature;BMP_pressure;BME280_temperature;BME280_humidity;BME280_pressure;Samples;Min_cycle;Max_cycle;Signal;HPM_P1;HPM_P2
2023/05/12 00:01:40;;;;;;;;;;;;;;;;;;4932859;29;1503;-46
2023/05/12 00:04:10;;;;;;;;;;;;;;;;;;4933357;29;2070;-48
2023/05/12 00:06:37;;;;;;;;;;;;;;;;;;4932909;29;2033;-46
2023/05/12 00:09:05;;;;;;;;;;;;;;;;;;4933397;29;2167;-56
2023/05/12 00:11:32;;;;;;;;;;;;;;;;;;4932859;29;1982;-47
2023/05/12 00:13:59;;;;;;;;;;;;;;;;;;4933379;29;2162;-48
2023/05/12 00:16:26;;;;;;;;;;;;;;;;;;4932923;29;1803;-46
2023/05/12 00:18:53;;;;;;;;;;;;;;;;;;4933119;29;1994;-57
2023/05/12 00:21:21;;;;;;;;;;;;;;;;;;4932841;29;2059;-47
2023/05/12 00:23:48;;;;;;;;;;;;;;;;;;4933430;29;1856;-51
2023/05/12 00:26:16;;;;;;;;;;;;;;;;;;4933146;29;1996;-59
2023/05/12 00:28:46;;;;;;;;;;;;;;;;;;4932675;29;2109;-46
2023/05/12 00:31:13;;;;;;;;;;;;;;;;;;4932987;29;1782;-48
2023/05/12 00:33:41;;;;;;;;;;;;;;;;;;4931653;29;2047;-47
2023/05/12 00:36:09;;;;;;;;;;;;;;;;;;4933188;29;1944;-58
2023/05/12 00:38:36;;;;;;;;;;;;;;;;;;4934142;29;2139;-53
2023/05/12 00:41:03;;;;;;;;;;;;;;;;;;4936398;29;1980;-50
2023/05/12 00:43:30;;;;;;;;;;;;;;;;;;4935101;29;2155;-57
2023/05/12 00:45:58;;;;;;;;;;;;;;;;;;4936837;29;1987;-47
2023/05/12 00:48:26;;;;;;;;;;;;;;;;;;4936246;29;2092;-53
2023/05/12 00:50:53;;;;;;;;;;;;;;;;;;4936713;29;1904;-45
2023/05/12 00:53:20;;;;;;;;;;;;;;;;;;4936586;29;1840;-46
2023/05/12 00:55:48;;;;;;;;;;;;;;;;;;4936674;29;1582;-48
2023/05/12 00:58:16;;;;;;;;;;;;;;;;;;4936604;29;2151;-47
2023/05/12 01:00:44;;;;;;;;;;;;;;;;;;4936208;29;1956;-52
2023/05/12 01:03:12;;;;;;;;;;;;;;;;;;4935109;29;2318;-45
2023/05/12 01:05:51;;;;;;;;;;;;;;;;;;4934949;29;1985;-45
2023/05/12 01:08:19;;;;;;;;;;;;;;;;;;4934709;29;2033;-46
2023/05/12 01:10:46;;;;;;;;;;;;;;;;;;4936483;29;2097;-48
2023/05/12 01:13:15;;;;;;;;;;;;;;;;;;4936204;29;2084;-46
2023/05/12 01:15:45;;;;;;;;;;;;;;;;;;4935294;29;2154;-48
2023/05/12 01:18:13;;;;;;;;;;;;;;;;;;4935026;29;1933;-44
2023/05/12 01:20:42;;;;;;;;;;;;;;;;;;4934339;29;2030;-48
2023/05/12 01:23:12;;;;;;;;;;;;;;;;;;4934647;29;2149;-47
2023/05/12 01:25:43;;;;;;;;;;;;;;;;;;4935648;29;1913;-46
2023/05/12 01:28:10;;;;;;;;;;;;;;;;;;4935648;29;1981;-53
2023/05/12 01:30:41;;;;;;;;;;;;;;;;;;4934330;29;1910;-47
2023/05/12 01:33:11;;;;;;;;;;;;;;;;;;4935630;29;2110;-46
2023/05/12 01:35:38;;;;;;;;;;;;;;;;;;4934344;29;1875;-58
2023/05/12 01:38:05;;;;;;;;;;;;;;;;;;4934483;29;2260;-47
2023/05/12 01:40:36;;;;;;;;;;;;;;;;;;4934090;29;2101;-50
2023/05/12 01:43:03;;;;;;;;;;;;;;;;;;4934262;29;1875;-47
2023/05/12 01:45:32;;;;;;;;;;;;;;;;;;4935293;29;2171;-46
2023/05/12 01:47:59;;;;;;;;;;;;;;;;;;4933994;29;2101;-45
2023/05/12 01:50:26;;;;;;;;;;;;;;;;;;4934932;29;1983;-46
2023/05/12 01:52:54;;;;;;;;;;;;;;;;;;4934106;29;1936;-52
2023/05/12 01:55:21;;;;;;;;;;;;;;;;;;4933990;29;1944;-45
2023/05/12 01:57:52;;;;;;;;;;;;;;;;;;4933872;29;2039;-48
2023/05/12 02:00:20;;;;;;;;;;;;;;;;;;4935615;29;2029;-50
2023/05/12 02:02:50;;;;;;;;;;;;;;;;;;4934142;29;1912;-47
2023/05/12 02:05:17;;;;;;;;;;;;;;;;;;4934201;29;2036;-47
2023/05/12 02:07:47;;;;;;;;;;;;;;;;;;4934063;29;1987;-44
2023/05/12 02:10:16;;;;;;;;;;;;;;;;;;4933219;29;2202;-48
2023/05/12 02:12:44;;;;;;;;;;;;;;;;;;4933486;29;1829;-50
2023/05/12 02:15:11;;;;;;;;;;;;;;;;;;4933574;29;2065;-47
2023/05/12 02:17:42;;;;;;;;;;;;;;;;;;4933652;29;1977;-49
2023/05/12 02:20:11;;;;;;;;;;;;;;;;;;4933718;29;1774;-52
2023/05/12 02:22:38;;;;;;;;;;;;;;;;;;4933391;29;2083;-49
2023/05/12 02:25:06;;;;;;;;;;;;;;;;;;4935016;29;2082;-50
2023/05/12 02:27:33;;;;;;;;;;;;;;;;;;4932976;29;1976;-50
2023/05/12 02:30:03;;;;;;;;;;;;;;;;;;4933479;29;2106;-54
2023/05/12 02:32:32;;;;;;;;;;;;;;;;;;4933335;29;1774;-53
2023/05/12 02:34:59;;;;;;;;;;;;;;;;;;4933413;29;2259;-54
2023/05/12 02:37:27;;;;;;;;;;;;;;;;;;4933286;29;2001;-52
2023/05/12 02:39:54;;;;;;;;;;;;;;;;;;4933188;29;2026;-52
2023/05/12 02:42:22;;;;;;;;;;;;;;;;;;4934530;29;2018;-47
2023/05/12 02:44:50;;;;;;;;;;;;;;;;;;4933696;29;1729;-50
2023/05/12 02:47:17;;;;;;;;;;;;;;;;;;4933187;29;2187;-57
2023/05/12 02:49:44;;;;;;;;;;;;;;;;;;4933073;29;1971;-47
2023/05/12 02:52:11;;;;;;;;;;;;;;;;;;4933154;29;2047;-52
2023/05/12 02:54:39;;;;;;;;;;;;;;;;;;4934068;29;2024;-54
2023/05/12 02:57:06;;;;;;;;;;;;;;;;;;4914211;29;2130;-50
2023/05/12 02:59:33;;;;;;;;;;;;;;;;;;4929818;29;2020;-54
2023/05/12 03:02:00;;;;;;;;;;;;;;;;;;4914714;29;1810;-53
2023/05/12 03:04:28;;;;;;;;;;;;;;;;;;4914963;29;1924;-56
2023/05/12 03:06:55;;;;;;;;;;;;;;;;;;4914740;29;1991;-56
2023/05/12 03:09:23;;;;;;;;;;;;;;;;;;4929240;29;1915;-55
2023/05/12 03:11:50;;;;;;;;;;;;;;;;;;4915105;29;1483;-52
2023/05/12 03:14:19;;;;;;;;;;;;;;;;;;4915501;29;2010;-47
2023/05/12 03:16:46;;;;;;;;;;;;;;;;;;4915063;29;1888;-55
2023/05/12 03:19:13;;;;;;;;;;;;;;;;;;4929641;29;1980;-50
2023/05/12 03:21:40;;;;;;;;;;;;;;;;;;4914666;29;1900;-51
2023/05/12 03:24:08;;;;;;;;;;;;;;;;;;4929362;29;1995;-49
2023/05/12 03:26:35;;;;;;;;;;;;;;;;;;4925493;29;2069;-48
2023/05/12 03:29:02;;;;;;;;;;;;;;;;;;4933697;29;1978;-53
2023/05/12 03:31:29;;;;;;;;;;;;;;;;;;4933428;29;2172;-51
2023/05/12 03:33:57;;;;;;;;;;;;;;;;;;4932573;29;1489;-48
2023/05/12 03:36:24;;;;;;;;;;;;;;;;;;4932110;29;2121;-53
2023/05/12 03:38:51;;;;;;;;;;;;;;;;;;4933571;29;1935;-49
2023/05/12 03:41:18;;;;;;;;;;;;;;;;;;4932558;29;1947;-53
2023/05/12 03:43:45;;;;;;;;;;;;;;;;;;4932149;29;2001;-50
2023/05/12 03:46:13;;;;;;;;;;;;;;;;;;4933554;29;2011;-50
2023/05/12 03:48:40;;;;;;;;;;;;;;;;;;4933079;29;2081;-52
2023/05/12 03:51:07;;;;;;;;;;;;;;;;;;4933412;29;1990;-48
2023/05/12 03:53:34;;;;;;;;;;;;;;;;;;4932017;29;1986;-49
2023/05/12 03:56:05;;;;;;;;;;;;;;;;;;4932178;29;1807;-54
2023/05/12 03:58:32;;;;;;;;;;;;;;;;;;4932928;29;2164;-52
2023/05/12 04:01:00;;;;;;;;;;;;;;;;;;4933392;29;1518;-47
2023/05/12 04:03:27;;;;;;;;;;;;;;;;;;4931718;29;1866;-49
2023/05/12 04:05:59;;;;;;;;;;;;;;;;;;4932268;29;1798;-48
2023/05/12 04:08:26;;;;;;;;;;;;;;;;;;4933176;29;1969;-52
2023/05/12 04:10:54;;;;;;;;;;;;;;;;;;4947711;29;2031;-54
2023/05/12 04:13:21;;;;;;;;;;;;;;;;;;4935593;29;1947;-46
2023/05/12 04:15:50;;;;;;;;;;;;;;;;;;4952023;29;1823;-49
2023/05/12 04:18:17;;;;;;;;;;;;;;;;;;4937234;29;2135;-50
2023/05/12 04:20:44;;;;;;;;;;;;;;;;;;4936863;29;2299;-50
2023/05/12 04:23:13;;;;;;;;;;;;;;;;;;4935467;29;1849;-54
2023/05/12 04:25:41;;;;;;;;;;;;;;;;;;4935379;29;2103;-55
2023/05/12 04:28:08;;;;;;;;;;;;;;;;;;4936955;29;2074;-57
2023/05/12 04:30:39;;;;;;;;;;;;;;;;;;4935306;29;1977;-46
2023/05/12 04:33:06;;;;;;;;;;;;;;;;;;4935864;29;1990;-51
2023/05/12 04:35:34;;;;;;;;;;;;;;;;;;4935309;29;2020;-55
2023/05/12 04:38:02;;;;;;;;;;;;;;;;;;4935436;29;2096;-55
2023/05/12 04:40:30;;;;;;;;;;;;;;;;;;4935299;29;1903;-53
2023/05/12 04:42:59;;;;;;;;;;;;;;;;;;4936461;29;1958;-52
2023/05/12 04:45:29;;;;;;;;;;;;;;;;;;4935224;29;1942;-55
2023/05/12 04:47:56;;;;;;;;;;;;;;;;;;4935338;29;2328;-55
2023/05/12 04:50:23;;;;;;;;;;;;;;;;;;4936420;29;2023;-57
2023/05/12 04:52:51;;;;;;;;;;;;;;;;;;4936808;29;1770;-55
2023/05/12 04:55:18;;;;;;;;;;;;;;;;;;4950991;29;2031;-49
2023/05/12 04:57:45;;;;;;;;;;;;;;;;;;4935999;29;2115;-50
2023/05/12 05:00:13;;;;;;;;;;;;;;;;;;4936282;29;1810;-46
2023/05/12 05:02:42;;;;;;;;;;;;;;;;;;4934630;29;1946;-49
2023/05/12 05:05:10;;;;;;;;;;;;;;;;;;4935139;29;2067;-46
2023/05/12 05:07:38;;;;;;;;;;;;;;;;;;4934608;29;2262;-51
2023/05/12 05:10:06;;;;;;;;;;;;;;;;;;4934668;29;1971;-49
2023/05/12 05:12:33;;;;;;;;;;;;;;;;;;4934555;29;1493;-51
2023/05/12 05:15:00;;;;;;;;;;;;;;;;;;4936070;29;1990;-47
2023/05/12 05:17:27;;;;;;;;;;;;;;;;;;4934661;29;2177;-59
2023/05/12 05:19:55;;;;;;;;;;;;;;;;;;4935667;29;1988;-50
2023/05/12 05:22:28;;;;;;;;;;;;;;;;;;4934449;29;2050;-48
2023/05/12 05:24:55;;;;;;;;;;;;;;;;;;4935189;29;1886;-61
2023/05/12 05:27:22;;;;;;;;;;;;;;;;;;4935862;29;1934;-48
2023/05/12 05:29:50;;;;;;;;;;;;;;;;;;4934749;29;2492;-48
2023/05/12 05:32:17;;;;;;;;;;;;;;;;;;4935185;29;1784;-50
2023/05/12 05:34:44;;;;;;;;;;;;;;;;;;4935026;29;2042;-49
2023/05/12 05:37:11;;;;;;;;;;;;;;;;;;4936210;29;2015;-45
2023/05/12 05:39:39;;;;;;;;;;;;;;;;;;4936040;29;1880;-46
2023/05/12 05:42:06;;;;;;;;;;;;;;;;;;4934170;29;1969;-49
2023/05/12 05:44:34;;;;;;;;;;;;;;;;;;4934598;29;1829;-45
2023/05/12 05:47:03;;;;;;;;;;;;;;;;;;4933005;29;2067;-46
2023/05/12 05:49:30;;;;;;;;;;;;;;;;;;4933969;29;1940;-55
2023/05/12 05:52:00;;;;;;;;;;;;;;;;;;4932573;29;2017;-45
2023/05/12 05:54:27;;;;;;;;;;;;;;;;;;4932844;29;1931;-46
2023/05/12 05:56:55;;;;;;;;;;;;;;;;;;4933431;29;2087;-45
2023/05/12 05:59:23;;;;;;;;;;;;;;;;;;4934320;29;1883;-48
2023/05/12 06:01:50;;;;;;;;;;;;;;;;;;4935871;29;1876;-48
2023/05/12 06:04:17;;;;;;;;;;;;;;;;;;4935631;29;2154;-45
2023/05/12 06:06:45;;;;;;;;;;;;;;;;;;4934427;29;1953;-56
2023/05/12 06:09:14;;;;;;;;;;;;;;;;;;4934281;29;2181;-47
2023/05/12 06:11:41;;;;;;;;;;;;;;;;;;4935608;29;2193;-59
2023/05/12 06:14:08;;;;;;;;;;;;;;;;;;4935874;29;1943;-45
2023/05/12 06:16:36;;;;;;;;;;;;;;;;;;4935586;29;1957;-51
2023/05/12 06:19:03;;;;;;;;;;;;;;;;;;4935649;29;1921;-45
2023/05/12 06:21:32;;;;;;;;;;;;;;;;;;4934760;29;2230;-46
2023/05/12 06:24:01;;;;;;;;;;;;;;;;;;4935447;29;1685;-44
2023/05/12 06:26:28;;;;;;;;;;;;;;;;;;4934232;29;2047;-46
2023/05/12 06:28:55;;;;;;;;;;;;;;;;;;4935406;29;2034;-46
2023/05/12 06:31:22;;;;;;;;;;;;;;;;;;4934106;29;1959;-46
2023/05/12 06:33:49;;;;;;;;;;;;;;;;;;4934160;29;2085;-45
2023/05/12 06:36:16;;;;;;;;;;;;;;;;;;4934314;29;1886;-45
2023/05/12 06:38:43;;;;;;;;;;;;;;;;;;4935259;29;1938;-51
2023/05/12 06:41:12;;;;;;;;;;;;;;;;;;4934029;29;2038;-48
2023/05/12 06:43:41;;;;;;;;;;;;;;;;;;4935052;29;2142;-44
2023/05/12 06:46:08;;;;;;;;;;;;;;;;;;4935150;29;1967;-45
2023/05/12 06:48:36;;;;;;;;;;;;;;;;;;4935160;29;1896;-47
2023/05/12 06:51:03;;;;;;;;;;;;;;;;;;4935099;29;2090;-46
2023/05/12 06:53:31;;;;;;;;;;;;;;;;;;4933669;29;1975;-47
2023/05/12 06:55:58;;;;;;;;;;;;;;;;;;4934920;29;2099;-47
2023/05/12 06:58:25;;;;;;;;;;;;;;;;;;4935156;29;1894;-45
2023/05/12 07:00:52;;;;;;;;;;;;;;;;;;4935320;29;1999;-47
2023/05/12 07:03:20;;;;;;;;;;;;;;;;;;4934969;29;2013;-48
2023/05/12 07:05:47;;;;;;;;;;;;;;;;;;4934854;29;1994;-59
2023/05/12 07:08:14;;;;;;;;;;;;;;;;;;4933576;29;2025;-59
2023/05/12 07:10:42;;;;;;;;;;;;;;;;;;4934736;29;2171;-46
2023/05/12 07:13:09;;;;;;;;;;;;;;;;;;4934568;29;1897;-45
2023/05/12 07:15:36;;;;;;;;;;;;;;;;;;4934715;29;1868;-45
2023/05/12 07:18:06;;;;;;;;;;;;;;;;;;4934444;29;2046;-59
2023/05/12 07:20:33;;;;;;;;;;;;;;;;;;4934591;29;1993;-54
2023/05/12 07:23:00;;;;;;;;;;;;;;;;;;4934503;29;1979;-46
2023/05/12 07:25:27;;;;;;;;;;;;;;;;;;4934188;29;2309;-49
2023/05/12 07:27:55;;;;;;;;;;;;;;;;;;4934662;29;2085;-56
2023/05/12 07:30:21;;;;;;;;;;;;;;;;;;4934457;29;2169;-46
2023/05/12 07:32:49;;;;;;;;;;;;;;;;;;4934416;29;2131;-46
2023/05/12 07:35:16;;;;;;;;;;;;;;;;;;4934364;29;2069;-46
2023/05/12 07:37:43;;;;;;;;;;;;;;;;;;4934177;29;1957;-49
2023/05/12 07:40:10;;;;;;;;;;;;;;;;;;4934110;29;2041;-47
2023/05/12 07:42:38;;;;;;;;;;;;;;;;;;4934534;29;2086;-49
2023/05/12 07:45:05;;;;;;;;;;;;;;;;;;4934012;29;2197;-45
2023/05/12 07:47:32;;;;;;;;;;;;;;;;;;4933767;29;2026;-46
2023/05/12 07:49:59;;;;;;;;;;;;;;;;;;4934010;29;2104;-46
2023/05/12 07:52:27;;;;;;;;;;;;;;;;;;4934110;29;2126;-53
2023/05/12 07:54:56;;;;;;;;;;;;;;;;;;4934238;29;2201;-48
2023/05/12 07:57:24;;;;;;;;;;;;;;;;;;4933876;29;2077;-47
2023/05/12 07:59:51;;;;;;;;;;;;;;;;;;4934006;29;1989;-46
2023/05/12 08:02:19;;;;;;;;;;;;;;;;;;4933819;29;2180;-60
2023/05/12 08:04:47;;;;;;;;;;;;;;;;;;4934003;29;1934;-62
2023/05/12 08:07:14;;;;;;;;;;;;;;;;;;4933872;29;1979;-57
2023/05/12 08:09:41;;;;;;;;;;;;;;;;;;4934128;29;2107;-46
2023/05/12 08:12:09;;;;;;;;;;;;;;;;;;4933671;29;1942;-46
2023/05/12 08:14:36;;;;;;;;;;;;;;;;;;4934121;29;1884;-55
2023/05/12 08:17:05;;;;;;;;;;;;;;;;;;4933788;29;1769;-58
2023/05/12 08:19:32;;;;;;;;;;;;;;;;;;4933763;29;1959;-57
2023/05/12 08:22:00;;;;;;;;;;;;;;;;;;4934157;29;1896;-62
2023/05/12 08:24:27;;;;;;;;;;;;;;;;;;4934000;29;1999;-47
2023/05/12 08:26:55;;;;;;;;;;;;;;;;;;4933634;29;2096;-58
2023/05/12 08:29:22;;;;;;;;;;;;;;;;;;4932454;29;2295;-59
2023/05/12 08:31:49;;;;;;;;;;;;;;;;;;4933791;29;1991;-61
2023/05/12 08:34:16;;;;;;;;;;;;;;;;;;4933659;29;2080;-45
2023/05/12 08:36:43;;;;;;;;;;;;;;;;;;4933785;29;2061;-45
2023/05/12 08:39:10;;;;;;;;;;;;;;;;;;4933761;29;1964;-57
2023/05/12 08:41:56;;;;;;;;;;;;;;;;;;4933662;29;1773;-61
2023/05/12 08:44:24;;;;;;;;;;;;;;;;;;4933791;29;2030;-45
2023/05/12 08:46:53;;;;;;;;;;;;;;;;;;4933695;29;2003;-45
2023/05/12 08:49:21;;;;;;;;;;;;;;;;;;4933495;29;2069;-47
2023/05/12 08:51:50;;;;;;;;;;;;;;;;;;4933723;29;2010;-46
2023/05/12 08:54:25;;;;;;;;;;;;;;;;;;4933508;29;1987;-48
2023/05/12 08:56:53;;;;;;;;;;;;;;;;;;4933560;29;2154;-47
2023/05/12 08:59:23;;;;;;;;;;;;;;;;;;4934030;29;2015;-46
2023/05/12 09:01:50;;;;;;;;;;;;;;;;;;4937170;29;1994;-46
2023/05/12 09:04:17;;;;;;;;;;;;;;;;;;4936952;29;2032;-44
2023/05/12 09:06:45;;;;;;;;;;;;;;;;;;4937309;29;1906;-45
2023/05/12 09:09:14;;;;;;;;;;;;;;;;;;4936953;29;2223;-45
2023/05/12 09:11:41;;;;;;;;;;;;;;;;;;4936679;29;1858;-46
2023/05/12 09:14:17;;;;;;;;;;;;;;;;;;4936951;29;2320;-45
2023/05/12 09:16:47;;;;;;;;;;;;;;;;;;4936711;29;2179;-45
2023/05/12 09:19:19;;;;;;;;;;;;;;;;;;4936596;29;1855;-47
2023/05/12 09:21:49;;;;;;;;;;;;;;;;;;4936570;29;1990;-47
2023/05/12 09:24:16;;;;;;;;;;;;;;;;;;4936527;29;2079;-45
2023/05/12 09:26:53;;;;;;;;;;;;;;;;;;4936331;29;2130;-44
2023/05/12 09:29:21;;;;;;;;;;;;;;;;;;4935373;29;1911;-48
2023/05/12 09:31:58;;;;;;;;;;;;;;;;;;4936467;29;1949;-46
2023/05/12 09:34:26;;;;;;;;;;;;;;;;;;4936348;29;2014;-44
2023/05/12 09:37:01;;;;;;;;;;;;;;;;;;4936525;29;1879;-45
2023/05/12 09:39:28;;;;;;;;;;;;;;;;;;4936177;29;1935;-46
2023/05/12 09:41:55;;;;;;;;;;;;;;;;;;4936215;29;2090;-44
2023/05/12 09:44:23;;;;;;;;;;;;;;;;;;4936193;29;1896;-47
2023/05/12 09:46:51;;;;;;;;;;;;;;;;;;4936062;29;2048;-46
2023/05/12 09:49:19;;;;;;;;;;;;;;;;;;4935989;29;1905;-44
2023/05/12 09:51:50;;;;;;;;;;;;;;;;;;4936155;29;1944;-44
2023/05/12 09:54:27;;;;;;;;;;;;;;;;;;4936258;29;1970;-45
2023/05/12 09:56:58;;;;;;;;;;;;;;;;;;4936031;29;1866;-46
2023/05/12 09:59:32;;;;;;;;;;;;;;;;;;4935808;29;2023;-45
2023/05/12 10:02:00;;;;;;;;;;;;;;;;;;4935719;29;1857;-44
2023/05/12 10:04:28;;;;;;;;;;;;;;;;;;4935713;29;2180;-44
2023/05/12 10:06:56;;;;;;;;;;;;;;;;;;4935807;29;1998;-45
2023/05/12 10:09:32;;;;;;;;;;;;;;;;;;4935741;29;1956;-45
2023/05/12 10:12:01;;;;;;;;;;;;;;;;;;4935244;29;2001;-47
2023/05/12 10:14:30;;;;;;;;;;;;;;;;;;4935861;29;1825;-61
2023/05/12 10:16:58;;;;;;;;;;;;;;;;;;4935835;29;2220;-45
2023/05/12 10:19:25;;;;;;;;;;;;;;;;;;4935792;29;2137;-46
2023/05/12 10:21:54;;;;;;;;;;;;;;;;;;4935264;29;2022;-47
2023/05/12 10:24:24;;;;;;;;;;;;;;;;;;4935672;29;2261;-53
2023/05/12 10:26:52;;;;;;;;;;;;;;;;;;4933997;29;2114;-55
2023/05/12 10:29:19;;;;;;;;;;;;;;;;;;4935382;29;2134;-45
2023/05/12 10:31:48;;;;;;;;;;;;;;;;;;4935607;29;2145;-46
2023/05/12 10:34:16;;;;;;;;;;;;;;;;;;4935314;29;2183;-46
2023/05/12 10:36:51;;;;;;;;;;;;;;;;;;4935390;29;1966;-45
2023/05/12 10:39:18;;;;;;;;;;;;;;;;;;4935023;29;2004;-44
2023/05/12 10:41:45;;;;;;;;;;;;;;;;;;4935345;29;2014;-48
2023/05/12 10:44:13;;;;;;;;;;;;;;;;;;4935037;29;1665;-48
2023/05/12 10:46:40;;;;;;;;;;;;;;;;;;4935243;29;2004;-48
2023/05/12 10:49:08;;;;;;;;;;;;;;;;;;4935132;29;2026;-54
2023/05/12 10:51:36;;;;;;;;;;;;;;;;;;4934984;29;2189;-51
2023/05/12 10:54:04;;;;;;;;;;;;;;;;;;4935017;29;2087;-47
2023/05/12 10:56:38;;;;;;;;;;;;;;;;;;4935116;29;2067;-48
2023/05/12 10:59:18;;;;;;;;;;;;;;;;;;4915834;29;2040;-52
2023/05/12 11:02:00;;;;;;;;;;;;;;;;;;4915952;29;1840;-51
2023/05/12 11:04:39;;;;;;;;;;;;;;;;;;4915761;29;2126;-49
2023/05/12 11:07:08;;;;;;;;;;;;;;;;;;4915900;29;2153;-55
2023/05/12 11:09:39;;;;;;;;;;;;;;;;;;4915609;29;2013;-54
2023/05/12 11:12:19;;;;;;;;;;;;;;;;;;4915655;29;2041;-54
2023/05/12 11:14:46;;;;;;;;;;;;;;;;;;4915751;29;1998;-56
2023/05/12 11:17:14;;;;;;;;;;;;;;;;;;4915693;29;2030;-49
2023/05/12 11:19:46;;;;;;;;;;;;;;;;;;4915907;29;1882;-53
2023/05/12 11:22:16;;;;;;;;;;;;;;;;;;4914936;29;1796;-47
2023/05/12 11:24:43;;;;;;;;;;;;;;;;;;4915387;29;2035;-47
2023/05/12 11:27:17;;;;;;;;;;;;;;;;;;4915578;29;2005;-54
2023/05/12 11:29:54;;;;;;;;;;;;;;;;;;4915199;29;2037;-53
2023/05/12 11:32:23;;;;;;;;;;;;;;;;;;4915428;29;1947;-52
2023/05/12 11:34:50;;;;;;;;;;;;;;;;;;4915269;29;1920;-50
2023/05/12 11:37:19;;;;;;;;;;;;;;;;;;4915047;29;1751;-46
2023/05/12 11:39:47;;;;;;;;;;;;;;;;;;4914895;29;2032;-57
2023/05/12 11:42:14;;;;;;;;;;;;;;;;;;4915298;29;2098;-47
2023/05/12 11:44:46;;;;;;;;;;;;;;;;;;4914968;29;1882;-48
2023/05/12 11:47:15;;;;;;;;;;;;;;;;;;4915336;29;2057;-57
2023/05/12 11:49:49;;;;;;;;;;;;;;;;;;4915290;29;2069;-52
2023/05/12 11:52:18;;;;;;;;;;;;;;;;;;4915224;29;1838;-47
2023/05/12 11:54:57;;;;;;;;;;;;;;;;;;4915340;29;1864;-44
2023/05/12 11:57:28;;;;;;;;;;;;;;;;;;4921577;29;2171;-60
2023/05/12 11:59:56;;;;;;;;;;;;;;;;;;4934128;29;1979;-44
2023/05/12 12:02:24;;;;;;;;;;;;;;;;;;4934007;29;1891;-50
2023/05/12 12:04:52;;;;;;;;;;;;;;;;;;4933803;29;1944;-47
2023/05/12 12:07:33;;;;;;;;;;;;;;;;;;4933850;29;1963;-47
2023/05/12 12:10:14;;;;;;;;;;;;;;;;;;4931943;29;2090;-46
2023/05/12 12:12:41;;;;;;;;;;;;;;;;;;4929745;29;2766;-47
2023/05/12 12:15:09;;;;;;;;;;;;;;;;;;4933111;29;2074;-45
2023/05/12 12:17:38;;;;;;;;;;;;;;;;;;4933997;29;2014;-50
2023/05/12 12:20:06;;;;;;;;;;;;;;;;;;4933391;29;1998;-47
2023/05/12 12:22:34;;;;;;;;;;;;;;;;;;4933637;29;1958;-56
2023/05/12 12:25:01;;;;;;;;;;;;;;;;;;4933050;28;2149;-44
2023/05/12 12:27:28;;;;;;;;;;;;;;;;;;4925921;29;2067;-51
2023/05/12 12:29:56;;;;;;;;;;;;;;;;;;4933433;29;2151;-51
2023/05/12 12:32:23;;;;;;;;;;;;;;;;;;4933806;29;2009;-60
2023/05/12 12:34:50;;;;;;;;;;;;;;;;;;4937060;29;2111;-51
2023/05/12 12:37:17;;;;;;;;;;;;;;;;;;4937623;29;2068;-45
2023/05/12 12:39:46;;;;;;;;;;;;;;;;;;4937624;29;2085;-49
2023/05/12 12:42:14;;;;;;;;;;;;;;;;;;4936159;29;2047;-47
2023/05/12 12:44:42;;;;;;;;;;;;;;;;;;4937356;29;1980;-51
2023/05/12 12:47:09;;;;;;;;;;;;;;;;;;4937393;29;2012;-56
2023/05/12 12:49:36;;;;;;;;;;;;;;;;;;4937226;29;1959;-46
2023/05/12 12:52:03;;;;;;;;;;;;;;;;;;4937011;29;2073;-52
2023/05/12 12:54:31;;;;;;;;;;;;;;;;;;4935709;29;2467;-54
2023/05/12 12:56:58;;;;;;;;;;;;;;;;;;4937069;29;2103;-57
2023/05/12 12:59:26;;;;;;;;;;;;;;;;;;4937066;29;2230;-53
2023/05/12 13:01:53;;;;;;;;;;;;;;;;;;4936942;29;2075;-56
2023/05/12 13:04:21;;;;;;;;;;;;;;;;;;4937053;29;2135;-47
2023/05/12 13:06:49;;;;;;;;;;;;;;;;;;4936961;29;2052;-50
2023/05/12 13:09:16;;;;;;;;;;;;;;;;;;4936916;29;1935;-48
2023/05/12 13:11:46;;;;;;;;;;;;;;;;;;4936815;29;1986;-56
2023/05/12 13:14:13;;;;;;;;;;;;;;;;;;4936946;29;1967;-52
2023/05/12 13:16:40;;;;;;;;;;;;;;;;;;4936821;29;1982;-56
2023/05/12 13:19:07;;;;;;;;;;;;;;;;;;4936820;29;2068;-48
2023/05/12 13:21:35;;;;;;;;;;;;;;;;;;4936692;29;1868;-48
2023/05/12 13:24:02;;;;;;;;;;;;;;;;;;4936712;29;1635;-49
2023/05/12 13:26:29;;;;;;;;;;;;;;;;;;4935402;29;2020;-56
2023/05/12 13:28:56;;;;;;;;;;;;;;;;;;4936635;29;2016;-54
2023/05/12 13:31:26;;;;;;;;;;;;;;;;;;4936362;29;1977;-52
2023/05/12 13:33:53;;;;;;;;;;;;;;;;;;4936521;29;2016;-50
2023/05/12 13:36:20;;;;;;;;;;;;;;;;;;4936512;29;2176;-50
2023/05/12 13:38:47;;;;;;;;;;;;;;;;;;4936379;29;2087;-55
2023/05/12 13:41:15;;;;;;;;;;;;;;;;;;4936345;29;2022;-56
2023/05/12 13:43:42;;;;;;;;;;;;;;;;;;4936355;29;1723;-49
2023/05/12 13:46:09;;;;;;;;;;;;;;;;;;4935446;29;2271;-59
2023/05/12 13:48:36;;;;;;;;;;;;;;;;;;4936212;29;1809;-53
2023/05/12 13:51:04;;;;;;;;;;;;;;;;;;4936027;29;1940;-53
2023/05/12 13:53:31;;;;;;;;;;;;;;;;;;4936188;29;2108;-58
2023/05/12 13:56:13;;;;;;;;;;;;;;;;;;4934729;29;1850;-53
2023/05/12 13:58:40;;;;;;;;;;;;;;;;;;4935853;29;1851;-54
2023/05/12 14:01:08;;;;;;;;;;;;;;;;;;4934922;29;1789;-52
2023/05/12 14:03:35;;;;;;;;;;;;;;;;;;4934545;29;2083;-47
2023/05/12 14:06:03;;;;;;;;;;;;;;;;;;4935656;29;1981;-62
2023/05/12 14:08:30;;;;;;;;;;;;;;;;;;4935789;29;2072;-58
2023/05/12 14:10:57;;;;;;;;;;;;;;;;;;4934869;29;2353;-57
2023/05/12 14:13:25;;;;;;;;;;;;;;;;;;4935693;29;1847;-61
2023/05/12 14:15:52;;;;;;;;;;;;;;;;;;4935815;29;1983;-52
2023/05/12 14:18:22;;;;;;;;;;;;;;;;;;4935836;29;2136;-59
2023/05/12 14:20:49;;;;;;;;;;;;;;;;;;4935684;29;2197;-57
2023/05/12 14:23:16;;;;;;;;;;;;;;;;;;4935541;29;2140;-55
2023/05/12 14:25:43;;;;;;;;;;;;;;;;;;4935782;29;2086;-50
2023/05/12 14:28:11;;;;;;;;;;;;;;;;;;4935369;29;2002;-61
2023/05/12 14:30:38;;;;;;;;;;;;;;;;;;4935100;29;2028;-54
2023/05/12 14:33:06;;;;;;;;;;;;;;;;;;4935360;29;2258;-57
2023/05/12 14:35:33;;;;;;;;;;;;;;;;;;4935529;29;1882;-54
2023/05/12 14:38:00;;;;;;;;;;;;;;;;;;4935185;29;2035;-60
2023/05/12 14:40:28;;;;;;;;;;;;;;;;;;4935078;29;2129;-50
2023/05/12 14:42:55;;;;;;;;;;;;;;;;;;4935110;29;2175;-53
2023/05/12 14:45:24;;;;;;;;;;;;;;;;;;4934983;29;2072;-63
2023/05/12 14:47:51;;;;;;;;;;;;;;;;;;4933781;29;2046;-52
2023/05/12 14:50:19;;;;;;;;;;;;;;;;;;4934582;29;2063;-57
2023/05/12 14:52:46;;;;;;;;;;;;;;;;;;4934334;29;2109;-57
2023/05/12 14:55:15;;;;;;;;;;;;;;;;;;4934589;29;2013;-48
2023/05/12 14:57:46;;;;;;;;;;;;;;;;;;4933100;29;2164;-56
2023/05/12 15:00:14;;;;;;;;;;;;;;;;;;4934258;29;1995;-52
2023/05/12 15:02:41;;;;;;;;;;;;;;;;;;4933914;29;2021;-55
2023/05/12 15:05:09;;;;;;;;;;;;;;;;;;4934110;29;2104;-54
2023/05/12 15:07:37;;;;;;;;;;;;;;;;;;4933770;29;2125;-59
2023/05/12 15:10:05;;;;;;;;;;;;;;;;;;4934088;29;2095;-54
2023/05/12 15:12:32;;;;;;;;;;;;;;;;;;4933628;29;1973;-64
2023/05/12 15:15:00;;;;;;;;;;;;;;;;;;4934054;29;2046;-50
2023/05/12 15:17:29;;;;;;;;;;;;;;;;;;4934068;29;1848;-53
2023/05/12 15:19:57;;;;;;;;;;;;;;;;;;4934030;29;1900;-50
2023/05/12 15:22:24;;;;;;;;;;;;;;;;;;4934318;29;1829;-53
2023/05/12 15:24:51;;;;;;;;;;;;;;;;;;4933739;29;1882;-57
2023/05/12 15:27:18;;;;;;;;;;;;;;;;;;4933785;29;2371;-61
2023/05/12 15:29:46;;;;;;;;;;;;;;;;;;4933808;29;2041;-61
2023/05/12 15:32:13;;;;;;;;;;;;;;;;;;4933799;29;2230;-50
2023/05/12 15:34:40;;;;;;;;;;;;;;;;;;4933807;29;2071;-54
2023/05/12 15:37:08;;;;;;;;;;;;;;;;;;4933533;29;1888;-46
2023/05/12 15:39:36;;;;;;;;;;;;;;;;;;4933531;29;1978;-47
2023/05/12 15:42:04;;;;;;;;;;;;;;;;;;4933763;29;1713;-50
2023/05/12 15:44:33;;;;;;;;;;;;;;;;;;4933495;29;2081;-46
2023/05/12 15:47:00;;;;;;;;;;;;;;;;;;4933620;29;1797;-51
2023/05/12 15:49:27;;;;;;;;;;;;;;;;;;4933712;29;1917;-55
2023/05/12 15:51:54;;;;;;;;;;;;;;;;;;4933448;29;1972;-58
2023/05/12 15:54:22;;;;;;;;;;;;;;;;;;4932854;29;2103;-56
2023/05/12 15:56:49;;;;;;;;;;;;;;;;;;4933185;29;1932;-59
2023/05/12 15:59:16;;;;;;;;;;;;;;;;;;4933505;29;1916;-62
2023/05/12 16:01:43;;;;;;;;;;;;;;;;;;4932541;29;2220;-54
2023/05/12 16:04:10;;;;;;;;;;;;;;;;;;4933440;29;1923;-59
2023/05/12 16:06:38;;;;;;;;;;;;;;;;;;4933149;29;1985;-59
2023/05/12 16:09:06;;;;;;;;;;;;;;;;;;4936936;29;2062;-50
2023/05/12 16:11:33;;;;;;;;;;;;;;;;;;4939494;29;2101;-55
2023/05/12 16:14:01;;;;;;;;;;;;;;;;;;4939785;29;2078;-47
2023/05/12 16:16:28;;;;;;;;;;;;;;;;;;4939961;29;2013;-54
2023/05/12 16:18:56;;;;;;;;;;;;;;;;;;4939670;29;1628;-58
2023/05/12 16:21:23;;;;;;;;;;;;;;;;;;4939565;29;2204;-51
2023/05/12 16:23:50;;;;;;;;;;;;;;;;;;4939604;29;2094;-57
2023/05/12 16:26:18;;;;;;;;;;;;;;;;;;4939266;29;1900;-50
2023/05/12 16:28:46;;;;;;;;;;;;;;;;;;4936278;29;1939;-55
2023/05/12 16:31:16;;;;;;;;;;;;;;;;;;4938449;29;2058;-57
2023/05/12 16:33:44;;;;;;;;;;;;;;;;;;4938845;29;2256;-53
2023/05/12 16:36:11;;;;;;;;;;;;;;;;;;4938962;29;2271;-56
2023/05/12 16:38:39;;;;;;;;;;;;;;;;;;4938712;29;2048;-54
2023/05/12 16:41:06;;;;;;;;;;;;;;;;;;4939574;29;2079;-54
2023/05/12 16:43:33;;;;;;;;;;;;;;;;;;4939209;29;2006;-51
2023/05/12 16:46:01;;;;;;;;;;;;;;;;;;4939611;29;1906;-52
2023/05/12 16:48:32;;;;;;;;;;;;;;;;;;4939711;29;1880;-53
2023/05/12 16:51:00;;;;;;;;;;;;;;;;;;4939531;29;1911;-55
2023/05/12 16:53:30;;;;;;;;;;;;;;;;;;4939671;29;1448;-52
2023/05/12 16:55:57;;;;;;;;;;;;;;;;;;4939451;29;1978;-60
2023/05/12 16:58:26;;;;;;;;;;;;;;;;;;4939204;29;2057;-54
2023/05/12 17:00:53;;;;;;;;;;;;;;;;;;4938971;29;1714;-60
2023/05/12 17:03:21;;;;;;;;;;;;;;;;;;4924981;29;2045;-55
2023/05/12 17:05:48;;;;;;;;;;;;;;;;;;4920245;29;1995;-55
2023/05/12 17:08:16;;;;;;;;;;;;;;;;;;4920324;29;2161;-54
2023/05/12 17:10:45;;;;;;;;;;;;;;;;;;4920027;29;1830;-56